Time;durP1;ratioP1;P1;durP2;ratioP2;P2;SDS_P1;SDS_P2;PMS_P1;PMS_P2;Temp;Humidity;BMP_temperature;BMP_pressure;BME280_temperature;BME280_humidity;BME280_pressure;Samples;Min_cycle;Max_cycle;Signal;HPM_P1;HPM_P2
2024/04/15 00:01:04;;;;;;;3.35;2.25;;;;;;;10.88;73.40;93508.91;5475726;26;20490;-72
2024/04/15 00:03:29;;;;;;;3.85;2.42;;;;;;;10.77;73.64;93487.22;5483216;26;20053;-72
2024/04/15 00:05:55;;;;;;;3.28;2.55;;;;;;;10.76;73.45;93492.56;5482584;26;19997;-72
2024/04/15 00:08:20;;;;;;;3.13;2.22;;;;;;;10.67;73.51;93489.44;5477600;26;20498;-72
2024/04/15 00:10:47;;;;;;;4.35;2.65;;;;;;;10.41;74.25;93443.03;5481144;26;19998;-72
2024/04/15 00:13:13;;;;;;;3.58;2.35;;;;;;;10.46;74.89;93454.53;5483175;26;20002;-72
2024/04/15 00:15:38;;;;;;;3.38;2.40;;;;;;;10.56;75.32;93481.34;5479286;26;20006;-72
2024/04/15 00:18:04;;;;;;;3.28;2.20;;;;;;;10.31;74.81;93436.78;5483130;26;20748;-72
2024/04/15 00:20:29;;;;;;;4.35;2.40;;;;;;;10.59;74.68;93485.28;5481538;26;20013;-72
2024/04/15 00:22:55;;;;;;;3.90;3.10;;;;;;;10.32;75.70;93448.63;5478954;26;19991;-72
2024/04/15 00:25:21;;;;;;;8.32;3.80;;;;;;;10.50;76.08;93487.31;5482119;26;20035;-72
2024/04/15 00:27:47;;;;;;;7.30;3.67;;;;;;;10.53;75.98;93478.41;5482902;26;20002;-72
2024/04/15 00:30:12;;;;;;;4.75;3.25;;;;;;;10.40;76.80;93451.75;5482976;26;20002;-72
2024/04/15 00:32:38;;;;;;;4.55;3.10;;;;;;;10.68;76.32;93496.13;5474344;26;20013;-72
2024/04/15 00:35:03;;;;;;;5.30;2.88;;;;;;;10.55;76.39;93471.28;5481359;26;20464;-72
2024/04/15 00:37:29;;;;;;;4.00;2.55;;;;;;;10.64;75.71;93484.72;5481998;26;20053;-72
2024/04/15 00:39:55;;;;;;;3.30;2.30;;;;;;;10.39;75.36;93454.50;5473626;26;20026;-72
2024/04/15 00:42:21;;;;;;;;;;;;;;;10.70;75.11;93491.59;5483007;26;19994;-72
2024/04/15 00:44:46;;;;;;;4.30;2.70;;;;;;;10.61;75.74;93491.03;5481808;26;19924;-72
2024/04/15 00:47:12;;;;;;;3.55;2.70;;;;;;;10.43;76.33;93473.69;5474361;26;20002;-72
2024/04/15 00:49:38;;;;;;;5.68;2.90;;;;;;;10.46;77.43;93488.69;5476212;26;19990;-72
2024/04/15 00:52:05;;;;;;;3.58;2.47;;;;;;;10.38;77.49;93487.09;5473702;26;20002;-72
2024/04/15 00:54:32;;;;;;;4.50;2.40;;;;;;;10.34;77.44;93482.56;5478982;26;20000;-72
2024/04/15 00:56:59;;;;;;;4.57;2.50;;;;;;;10.32;77.49;93485.34;5478654;26;19998;-72
2024/04/15 00:59:25;;;;;;;3.53;2.28;;;;;;;10.23;77.86;93482.19;5482248;26;20002;-72
2024/04/15 01:01:52;;;;;;;4.38;2.95;;;;;;;10.33;78.14;93484.38;5480589;26;20009;-72
2024/04/15 01:04:18;;;;;;;4.50;2.55;;;;;;;10.27;78.00;93462.84;5476390;26;20002;-72
2024/04/15 01:06:44;;;;;;;3.92;2.55;;;;;;;10.42;78.06;93472.88;5482425;26;20509;-72
2024/04/15 01:09:10;;;;;;;4.13;2.58;;;;;;;10.46;78.42;93488.69;5479750;26;19990;-72
2024/04/15 01:11:35;;;;;;;5.97;2.40;;;;;;;10.10;77.24;93436.78;5469478;26;19995;-72
2024/04/15 01:14:01;;;;;;;4.78;2.95;;;;;;;10.28;77.13;93471.34;5471407;26;19994;-72
2024/04/15 01:16:36;;;;;;;;;;;;;;;10.34;76.92;93483.38;5482720;26;20074;-72
2024/04/15 01:19:02;;;;;;;4.22;2.70;;;;;;;9.83;77.58;93441.19;5481623;26;19930;-72
2024/04/15 01:21:27;;;;;;;5.05;2.45;;;;;;;9.96;78.51;93476.31;5481469;26;19997;-72
2024/04/15 01:23:52;;;;;;;5.97;2.83;;;;;;;9.94;78.73;93466.25;5476602;26;20002;-72
2024/04/15 01:26:18;;;;;;;7.55;2.75;;;;;;;9.73;79.07;93446.72;5473406;26;20044;-72
2024/04/15 01:28:44;;;;;;;4.25;2.72;;;;;;;9.36;80.33;93404.31;5479755;26;19998;-72
2024/04/15 01:31:09;;;;;;;6.18;2.70;;;;;;;9.67;80.74;93432.13;5475353;26;20078;-72
2024/04/15 01:33:35;;;;;;;3.67;2.70;;;;;;;10.02;80.73;93483.22;5474762;26;20124;-72
2024/04/15 01:36:00;;;;;;;11.35;3.20;;;;;;;9.75;80.27;93434.47;5445803;26;20002;-72
2024/04/15 01:38:27;;;;;;;4.57;2.72;;;;;;;9.98;80.21;93461.50;5478358;26;19994;-72
2024/04/15 01:40:52;;;;;;;4.03;2.67;;;;;;;9.97;80.52;93457.34;5481939;26;20012;-72
2024/04/15 01:43:17;;;;;;;4.00;2.67;;;;;;;9.55;81.05;93401.16;5481321;26;19998;-72
2024/04/15 01:45:43;;;;;;;5.43;2.83;;;;;;;9.74;80.30;93427.78;5474741;26;20002;-72
2024/04/15 01:48:08;;;;;;;3.33;2.80;;;;;;;9.82;80.37;93429.34;5479280;26;19998;-72
2024/04/15 01:50:34;;;;;;;4.43;2.53;;;;;;;9.77;81.13;93429.97;5480822;26;19994;-72
2024/04/15 01:52:59;;;;;;;3.88;2.50;;;;;;;9.93;81.11;93448.47;5478218;26;20010;-72
2024/04/15 01:55:25;;;;;;;4.43;2.78;;;;;;;9.93;80.60;93440.78;5478792;26;19998;-72
2024/04/15 01:57:51;;;;;;;6.60;2.47;;;;;;;9.63;80.02;93409.44;5474855;26;20006;-72
2024/04/15 02:00:16;;;;;;;4.82;2.38;;;;;;;9.56;80.16;93415.53;5480927;26;20745;-72
2024/04/15 02:02:42;;;;;;;8.32;3.00;;;;;;;9.79;80.43;93443.38;5480917;26;20074;-72
2024/04/15 02:05:07;;;;;;;4.70;3.05;;;;;;;9.57;80.08;93414.56;5476815;26;20002;-72
2024/04/15 02:07:35;;;;;;;4.15;2.90;;;;;;;9.79;80.22;93435.66;5481229;26;20002;-72
2024/04/15 02:10:01;;;;;;;5.15;2.80;;;;;;;9.60;80.48;93429.56;5477732;26;19994;-72
2024/04/15 02:12:26;;;;;;;4.13;3.30;;;;;;;9.74;80.56;93456.00;5471601;26;19998;-72
2024/04/15 02:14:52;;;;;;;4.00;2.60;;;;;;;9.70;80.46;93439.41;5480997;26;20359;-72
2024/04/15 02:17:17;;;;;;;4.03;2.97;;;;;;;9.42;80.50;93404.50;5480619;26;20026;-73
2024/04/15 02:19:43;;;;;;;4.53;2.58;;;;;;;9.59;80.77;93438.25;5472540;26;20075;-72
2024/04/15 02:22:08;;;;;;;5.47;2.70;;;;;;;9.31;81.61;93401.53;5480615;26;20010;-72
2024/04/15 02:24:33;;;;;;;6.18;2.95;;;;;;;9.27;81.69;93399.56;5475523;26;20009;-72
2024/04/15 02:26:59;;;;;;;4.57;2.97;;;;;;;9.27;81.93;93402.94;5480680;26;20002;-72
2024/04/15 02:29:24;;;;;;;5.53;2.60;;;;;;;9.53;82.35;93432.13;5476636;26;20022;-72
2024/04/15 02:31:50;;;;;;;3.92;2.47;;;;;;;9.34;82.88;93400.34;5479790;26;20797;-72
2024/04/15 02:34:20;;;;;;;4.43;3.15;;;;;;;8.73;82.50;93312.41;5481008;26;20021;-72
2024/04/15 02:36:45;;;;;;;4.95;2.90;;;;;;;9.42;82.90;93409.63;5473832;26;20124;-72
2024/04/15 02:39:11;;;;;;;5.85;3.08;;;;;;;9.36;83.14;93404.31;5477826;26;19998;-72
2024/04/15 02:41:36;;;;;;;3.90;2.70;;;;;;;9.34;83.60;93403.72;5480588;26;19998;-73
2024/04/15 02:44:02;;;;;;;4.55;3.40;;;;;;;9.48;83.14;93409.63;5473215;26;20003;-73
2024/04/15 02:46:27;;;;;;;6.70;3.97;;;;;;;8.98;82.68;93340.81;5480165;26;20832;-73
2024/04/15 02:48:53;;;;;;;4.82;3.20;;;;;;;9.28;83.33;93390.91;5479733;26;21445;-73
2024/04/15 02:51:18;;;;;;;3.78;2.60;;;;;;;9.29;83.62;93390.69;5483579;26;19998;-73
2024/04/15 02:53:43;;;;;;;6.22;3.05;;;;;;;9.23;83.51;93383.81;5480655;26;20436;-73
2024/04/15 02:56:09;;;;;;;4.65;3.00;;;;;;;9.26;83.52;93387.75;5484070;26;20010;-73
2024/04/15 02:58:34;;;;;;;7.00;3.05;;;;;;;9.39;83.59;93415.16;5484339;26;20383;-72
2024/04/15 03:01:00;;;;;;;5.28;3.25;;;;;;;9.28;84.14;93401.16;5478342;26;20065;-73
2024/04/15 03:03:25;;;;;;;7.05;3.13;;;;;;;9.16;85.37;93398.41;5479278;26;19994;-73
2024/04/15 03:05:51;;;;;;;6.85;3.50;;;;;;;8.81;87.38;93373.69;5483697;26;19998;-73
2024/04/15 03:08:16;;;;;;;4.82;3.00;;;;;;;8.88;88.01;93382.19;5484170;26;20319;-73
2024/04/15 03:10:42;;;;;;;6.60;3.50;;;;;;;8.94;89.08;93393.44;5476831;26;19998;-72
2024/04/15 03:13:07;;;;;;;5.28;3.60;;;;;;;8.87;88.60;93382.38;5483503;26;19998;-72
2024/04/15 03:15:33;;;;;;;5.90;4.10;;;;;;;8.83;89.74;93381.97;5483151;26;20002;-72
2024/04/15 03:17:58;;;;;;;4.85;3.13;;;;;;;8.40;90.34;93330.06;5480821;26;20430;-72
2024/04/15 03:20:27;;;;;;;6.03;3.72;;;;;;;8.64;89.21;93357.91;5478233;26;19998;-72
2024/04/15 03:22:53;;;;;;;5.60;3.70;;;;;;;8.98;88.93;93404.84;5483257;26;20013;-72
2024/04/15 03:25:20;;;;;;;6.95;4.50;;;;;;;8.89;90.94;93413.72;5483584;26;20532;-72
2024/04/15 03:27:47;;;;;;;6.43;3.83;;;;;;;8.76;91.66;93397.34;5477954;26;20057;-72
2024/04/15 03:30:12;;;;;;;5.22;4.03;;;;;;;8.65;92.64;93387.63;5476344;26;20348;-73
2024/04/15 03:32:38;;;;;;;4.97;3.88;;;;;;;8.73;92.91;93402.84;5480906;26;19994;-72
2024/04/15 03:35:04;;;;;;;5.95;3.70;;;;;;;7.78;94.25;93283.97;5483508;26;20006;-72
2024/04/15 03:37:30;;;;;;;;;;;;;;;8.73;94.33;93414.84;5479115;26;20016;-72
2024/04/15 03:39:55;;;;;;;6.68;3.65;;;;;;;8.57;94.69;93411.66;5483326;26;20452;-72
2024/04/15 03:42:21;;;;;;;7.20;3.53;;;;;;;8.18;94.59;93360.09;5480005;26;19994;-72
2024/04/15 03:44:46;;;;;;;7.55;3.80;;;;;;;8.29;94.62;93376.69;5479477;26;20483;-72
2024/04/15 03:47:12;;;;;;;10.10;4.35;;;;;;;8.35;96.30;93411.75;5483857;26;20326;-72
2024/04/15 03:49:37;;;;;;;7.65;4.07;;;;;;;8.44;97.14;93422.63;5469275;26;20021;-72
2024/04/15 03:52:03;;;;;;;7.18;4.00;;;;;;;8.41;97.35;93408.44;5480067;26;19994;-72
2024/04/15 03:54:28;;;;;;;8.32;4.35;;;;;;;8.22;97.76;93376.66;5474496;26;19998;-72
2024/04/15 03:56:54;;;;;;;5.53;4.13;;;;;;;8.37;98.11;93396.97;5480117;26;20377;-71
2024/04/15 03:59:19;;;;;;;7.15;4.18;;;;;;;8.57;96.26;93411.66;5467710;26;20396;-71
2024/04/15 04:01:45;;;;;;;8.50;4.22;;;;;;;8.71;94.58;93414.25;5478175;26;20358;-72
2024/04/15 04:04:10;;;;;;;6.65;4.20;;;;;;;8.65;94.80;93395.31;5482957;26;20002;-72
2024/04/15 04:06:36;;;;;;;11.35;4.68;;;;;;;8.92;93.08;93410.75;5475237;26;20835;-72
2024/04/15 04:09:02;;;;;;;10.23;5.43;;;;;;;8.99;94.57;93423.59;5481885;26;20472;-72
2024/04/15 04:11:27;;;;;;;11.57;4.63;;;;;;;8.74;92.99;93373.69;5474981;26;20002;-72
2024/04/15 04:13:53;;;;;;;9.55;5.32;;;;;;;8.56;93.60;93335.81;5482384;26;20014;-72
2024/04/15 04:16:18;;;;;;;10.02;5.10;;;;;;;9.01;94.91;93391.66;5480468;26;19994;-72
2024/04/15 04:18:47;;;;;;;9.05;5.20;;;;;;;8.84;95.24;93375.09;5502802;26;20431;-72
2024/04/15 04:21:13;;;;;;;12.27;5.20;;;;;;;8.89;91.84;93367.59;5483256;26;19998;-72
2024/04/15 04:23:38;;;;;;;13.18;4.97;;;;;;;9.01;91.75;93367.81;5487022;25;20449;-72
2024/04/15 04:26:04;;;;;;;10.25;4.55;;;;;;;9.20;90.98;93402.94;5494808;26;20005;-72
2024/04/15 04:28:30;;;;;;;10.63;5.47;;;;;;;9.14;90.25;93380.66;5493758;26;19993;-72
2024/04/15 04:31:01;;;;;;;7.82;5.18;;;;;;;9.37;90.82;93412.78;5490955;26;20009;-72
2024/04/15 04:33:27;;;;;;;9.05;5.20;;;;;;;9.42;90.48;93425.00;5493275;26;20013;-72
2024/04/15 04:35:53;;;;;;;11.68;5.63;;;;;;;9.47;89.67;93420.88;5500835;26;20592;-72
2024/04/15 04:38:18;;;;;;;9.55;5.38;;;;;;;9.21;88.43;93371.19;5514489;26;20001;-72
2024/04/15 04:40:44;;;;;;;15.45;6.25;;;;;;;9.34;88.87;93388.34;5487204;26;19994;-72
2024/04/15 04:43:09;;;;;;;16.35;6.07;;;;;;;9.39;88.74;93389.53;5495841;26;19993;-72
2024/04/15 04:45:34;;;;;;;14.88;7.07;;;;;;;9.41;89.01;93392.69;5509955;26;20434;-72
2024/04/15 04:48:00;;;;;;;18.13;5.95;;;;;;;9.58;87.95;93393.84;5505512;25;20013;-72
2024/04/15 04:50:25;;;;;;;18.55;7.15;;;;;;;9.37;88.58;93348.69;5484100;26;20074;-72
2024/04/15 04:52:51;;;;;;;12.23;6.80;;;;;;;9.77;89.13;93404.31;5482484;26;20075;-72
2024/04/15 04:55:16;;;;;;;14.80;6.03;;;;;;;9.30;87.77;93310.25;5507864;26;20012;-72
2024/04/15 04:57:42;;;;;;;11.93;6.47;;;;;;;10.02;87.55;93411.34;5510804;25;20516;-72
2024/04/15 05:00:08;;;;;;;11.73;5.88;;;;;;;9.95;87.30;93372.88;5471707;26;20405;-72
2024/04/15 05:02:33;;;;;;;11.75;6.45;;;;;;;10.14;86.56;93399.47;5483489;26;20026;-72
2024/04/15 05:04:59;;;;;;;14.80;6.70;;;;;;;10.12;86.57;93375.00;5513148;26;20415;-72
2024/04/15 05:07:24;;;;;;;14.50;8.60;;;;;;;10.36;86.50;93403.53;5480765;26;20049;-72
2024/04/15 05:09:50;;;;;;;12.45;8.32;;;;;;;10.35;86.72;93389.13;5488345;26;20477;-72
2024/04/15 05:12:15;;;;;;;28.05;9.35;;;;;;;10.50;85.43;93396.59;5502323;25;20009;-72
2024/04/15 05:14:40;;;;;;;18.38;7.47;;;;;;;10.47;85.95;93384.19;5483829;25;19994;-72
2024/04/15 05:17:08;;;;;;;14.55;8.00;;;;;;;10.51;87.77;93390.50;5512562;25;20461;-72
2024/04/15 05:19:33;;;;;;;23.88;9.00;;;;;;;10.40;88.13;93376.47;5510304;25;20005;-72
2024/04/15 05:21:59;;;;;;;16.83;9.50;;;;;;;10.43;88.85;93379.44;5474514;26;19998;-72
2024/04/15 05:24:24;;;;;;;21.25;10.02;;;;;;;10.48;90.47;93390.91;5491888;26;20441;-72
2024/04/15 05:26:50;;;;;;;15.45;9.27;;;;;;;10.46;90.40;93367.22;5511199;26;20018;-72
2024/04/15 05:29:16;;;;;;;22.98;10.23;;;;;;;10.63;91.65;93377.78;5489512;26;20005;-72
2024/04/15 05:31:41;;;;;;;21.58;10.07;;;;;;;10.25;91.76;93320.25;5500176;26;19998;-72
2024/04/15 05:34:07;;;;;;;28.95;11.25;;;;;;;10.24;92.21;93308.41;5509104;25;20493;-72
2024/04/15 05:36:32;;;;;;;21.80;10.05;;;;;;;10.49;90.81;93336.75;5499196;25;19994;-72
2024/04/15 05:38:57;;;;;;;15.95;8.75;;;;;;;10.92;88.41;93371.31;5486094;26;20009;-72
2024/04/15 05:41:23;;;;;;;20.55;10.77;;;;;;;10.85;89.73;93341.50;5495105;25;20337;-71
2024/04/15 05:43:48;;;;;;;22.58;9.57;;;;;;;11.20;90.74;93377.84;5490429;26;20007;-72
2024/04/15 05:46:15;;;;;;;22.33;8.80;;;;;;;11.29;88.63;93373.22;5514728;25;19998;-72
2024/04/15 05:48:41;;;;;;;19.48;8.90;;;;;;;11.47;87.48;93374.28;5507357;25;20084;-71
2024/04/15 05:51:06;;;;;;;22.05;10.13;;;;;;;11.65;87.33;93380.44;5507866;25;19999;-71
2024/04/15 05:53:32;;;;;;;21.20;10.95;;;;;;;11.75;88.18;93350.69;5486528;26;20326;-72
2024/04/15 05:55:57;;;;;;;19.55;9.82;;;;;;;12.03;87.04;93366.63;5499202;25;19997;-72
2024/04/15 05:58:23;;;;;;;17.40;8.23;;;;;;;12.26;86.12;93353.13;5503303;25;20445;-72
2024/04/15 06:00:48;;;;;;;19.65;8.70;;;;;;;12.26;82.79;93342.84;5485684;25;20012;-71
2024/04/15 06:03:14;;;;;;;22.88;10.75;;;;;;;12.76;83.28;93384.03;5506659;25;20021;-71
2024/04/15 06:05:39;;;;;;;22.05;9.07;;;;;;;12.74;82.28;93343.03;5510831;25;20441;-71
2024/04/15 06:08:05;;;;;;;24.05;8.55;;;;;;;13.21;82.23;93375.09;5486054;26;19998;-71
2024/04/15 06:10:30;;;;;;;18.10;7.28;;;;;;;13.28;79.49;93333.72;5497479;26;20745;-72
2024/04/15 06:12:56;;;;;;;24.40;7.95;;;;;;;13.39;77.83;93325.22;5499723;25;20449;-72
2024/04/15 06:15:21;;;;;;;18.40;8.25;;;;;;;13.60;77.19;93313.56;5510209;25;20008;-72
2024/04/15 06:17:47;;;;;;;21.55;7.55;;;;;;;13.96;76.95;93320.47;5490353;25;20002;-72
2024/04/15 06:20:12;;;;;;;16.10;7.65;;;;;;;14.34;75.64;93323.53;5502238;25;20012;-72
2024/04/15 06:22:38;;;;;;;31.38;9.07;;;;;;;14.62;73.89;93288.38;5499854;25;20070;-72
2024/04/15 06:25:04;;;;;;;22.48;8.00;;;;;;;14.95;73.18;93312.75;5485005;26;20517;-71
2024/04/15 06:27:29;;;;;;;;;;;;;;;15.47;70.64;93353.09;5485898;26;20013;-72
2024/04/15 06:29:55;;;;;;;20.08;8.32;;;;;;;15.69;71.13;93333.50;5490681;26;19924;-72
2024/04/15 06:32:39;;;;;;;18.48;8.30;;;;;;;15.88;71.40;93302.91;5492402;26;20450;-72
2024/04/15 06:35:05;;;;;;;21.27;7.97;;;;;;;16.22;67.74;93307.22;5505302;26;20318;-72
2024/04/15 06:37:30;;;;;;;14.15;7.20;;;;;;;16.55;66.72;93308.09;5493470;26;20005;-72
2024/04/15 06:39:56;;;;;;;22.75;7.93;;;;;;;16.79;66.61;93305.19;5492847;25;20010;-72
2024/04/15 06:42:21;;;;;;;21.90;8.65;;;;;;;17.43;65.83;93332.22;5503538;26;20013;-72
2024/04/15 06:44:47;;;;;;;16.33;8.10;;;;;;;17.71;64.51;93314.72;5500155;25;20315;-72
2024/04/15 06:47:13;;;;;;;19.88;7.10;;;;;;;18.23;62.34;93324.63;5494219;25;19997;-72
2024/04/15 06:49:39;;;;;;;17.73;6.55;;;;;;;18.43;60.26;93309.06;5503328;25;20006;-72
2024/04/15 06:52:05;;;;;;;13.43;6.20;;;;;;;18.22;59.62;93240.63;5486200;26;20005;-72
2024/04/15 06:54:31;;;;;;;11.43;5.30;;;;;;;19.32;58.75;93285.75;5496167;26;20069;-72
2024/04/15 06:56:56;;;;;;;12.90;3.88;;;;;;;20.03;55.67;93314.56;5507738;25;20386;-72
2024/04/15 06:59:22;;;;;;;7.10;2.65;;;;;;;20.59;53.37;93322.41;5487125;26;19999;-72
2024/04/15 07:01:47;;;;;;;5.03;2.00;;;;;;;20.70;48.90;93277.69;5487041;26;20073;-72
2024/04/15 07:04:13;;;;;;;10.15;1.90;;;;;;;21.37;47.33;93317.47;5504109;25;20016;-73
2024/04/15 07:06:38;;;;;;;7.20;1.98;;;;;;;21.67;47.78;93304.38;5487568;26;20359;-72
2024/04/15 07:09:03;;;;;;;;;;;;;;;22.10;45.31;93322.81;5500588;26;20002;-72
2024/04/15 07:11:29;;;;;;;3.37;1.90;;;;;;;22.07;44.07;93296.44;5500458;26;19956;-73
2024/04/15 07:13:54;;;;;;;;;;;;;;;22.50;43.85;93321.81;5500870;26;20013;-73
2024/04/15 07:16:20;;;;;;;3.95;1.40;;;;;;;22.66;42.66;93306.69;5505963;26;19996;-72
2024/04/15 07:18:45;;;;;;;;;;;;;;;22.84;42.82;93318.22;5516158;25;19997;-73
2024/04/15 07:21:10;;;;;;;;;;;;;;;23.15;44.27;93309.13;5487959;26;20316;-72
2024/04/15 07:23:36;;;;;;;4.77;1.40;;;;;;;23.18;42.58;93304.09;5487911;26;20280;-72
2024/04/15 07:26:01;;;;;;;;;;;;;;;23.58;42.64;93310.81;5495641;26;19994;-72
2024/04/15 07:28:27;;;;;;;;;;;;;;;23.80;41.81;93307.56;5484226;26;20302;-73
2024/04/15 07:30:57;;;;;;;;;;;;;;;23.98;41.60;93299.91;5494214;26;19992;-73
2024/04/15 07:33:22;;;;;;;10.65;2.47;;;;;;;24.04;41.25;93296.09;5504056;26;19964;-72
2024/04/15 07:35:57;;;;;;;;;;;;;;;24.15;41.22;93299.31;5501684;25;20014;-72
2024/04/15 07:38:23;;;;;;;3.03;1.83;;;;;;;24.24;40.73;93278.41;5485695;26;19924;-72
2024/04/15 07:40:48;;;;;;;;;;;;;;;24.50;41.18;93299.69;5515208;26;20016;-72
2024/04/15 07:43:14;;;;;;;5.50;1.85;;;;;;;24.63;41.53;93290.19;5497972;26;19930;-72
2024/04/15 07:45:39;;;;;;;;;;;;;;;24.91;41.05;93305.91;5488987;26;20073;-72
2024/04/15 07:48:05;;;;;;;8.52;2.95;;;;;;;25.02;40.21;93285.44;5487428;26;19948;-72
2024/04/15 07:50:31;;;;;;;;;;;;;;;25.19;39.82;93295.28;5500696;26;19998;-73
2024/04/15 07:52:56;;;;;;;4.45;1.85;;;;;;;25.12;39.86;93257.38;5492771;26;20253;-72
2024/04/15 07:55:21;;;;;;;5.97;1.92;;;;;;;25.48;39.83;93283.56;5502239;25;20017;-72
2024/04/15 07:57:47;;;;;;;5.03;1.92;;;;;;;25.52;39.98;93252.16;5504545;25;20008;-73
2024/04/15 08:00:13;;;;;;;7.53;2.20;;;;;;;25.65;38.92;93258.44;5494753;26;19993;-72
2024/04/15 08:02:38;;;;;;;7.07;2.20;;;;;;;25.82;39.19;93256.94;5511993;26;20009;-70
2024/04/15 08:05:04;;;;;;;5.30;1.55;;;;;;;26.07;38.77;93268.63;5510457;25;19990;-70
2024/04/15 08:07:29;;;;;;;8.63;1.90;;;;;;;26.18;37.84;93274.38;5497480;26;20338;-70
2024/04/15 08:09:58;;;;;;;6.07;1.88;;;;;;;25.92;36.82;93255.91;5490070;26;20056;-70
2024/04/15 08:12:24;;;;;;;6.07;2.22;;;;;;;26.07;37.36;93270.47;5514049;25;20002;-73
2024/04/15 08:14:49;;;;;;;3.58;2.25;;;;;;;26.40;37.62;93267.47;5501681;25;20030;-72
2024/04/15 08:17:15;;;;;;;7.03;1.75;;;;;;;26.23;37.79;93236.59;5491668;26;20009;-73
2024/04/15 08:19:40;;;;;;;4.10;1.75;;;;;;;26.43;36.60;93274.78;5511452;26;21296;-73
2024/04/15 08:22:06;;;;;;;7.47;2.40;;;;;;;26.36;35.71;93259.44;5480927;26;20009;-73
2024/04/15 08:24:31;;;;;;;6.20;1.85;;;;;;;26.46;34.87;93234.63;5506156;26;19997;-73
2024/04/15 08:26:56;;;;;;;8.45;2.30;;;;;;;26.93;36.38;93264.88;5492546;25;20040;-70
2024/04/15 08:29:22;;;;;;;3.55;1.45;;;;;;;27.05;34.64;93258.97;5482698;26;20006;-70
2024/04/15 08:31:48;;;;;;;7.30;2.00;;;;;;;27.01;34.54;93236.97;5493070;25;20014;-70
2024/04/15 08:34:13;;;;;;;6.65;1.90;;;;;;;27.06;34.32;93237.59;5483672;26;20001;-70
2024/04/15 08:36:39;;;;;;;4.95;2.13;;;;;;;27.13;33.27;93247.66;5484172;26;20034;-70
2024/04/15 08:39:05;;;;;;;3.42;1.67;;;;;;;27.15;34.63;93242.03;5490223;26;20461;-70
2024/04/15 08:41:35;;;;;;;4.45;2.00;;;;;;;27.21;35.24;93224.97;5486826;26;20002;-70
2024/04/15 08:44:05;;;;;;;3.67;1.80;;;;;;;27.47;34.76;93246.00;5488265;26;20032;-71
2024/04/15 08:46:44;;;;;;;6.07;1.98;;;;;;;27.37;34.62;93227.09;5492802;26;20450;-70
2024/04/15 08:49:10;;;;;;;4.90;2.22;;;;;;;27.61;35.04;93235.28;5499086;26;20017;-70
2024/04/15 08:51:36;;;;;;;3.08;2.00;;;;;;;27.81;35.41;93240.94;5486171;26;21013;-71
2024/04/15 08:54:01;;;;;;;7.18;3.05;;;;;;;27.77;34.95;93212.88;5492074;26;19997;-71
2024/04/15 08:56:31;;;;;;;6.25;2.65;;;;;;;27.64;35.08;93199.56;5497203;26;20671;-70
2024/04/15 08:58:57;;;;;;;5.13;1.85;;;;;;;27.80;35.39;93228.81;5483268;26;20010;-70
2024/04/15 09:01:23;;;;;;;4.47;1.90;;;;;;;27.50;35.71;93191.84;5495261;25;20375;-70
2024/04/15 09:03:49;;;;;;;6.97;2.20;;;;;;;27.76;35.84;93221.88;5505684;25;20001;-70
2024/04/15 09:06:16;;;;;;;5.22;2.38;;;;;;;27.77;36.01;93200.41;5509741;26;20001;-70
2024/04/15 09:08:43;;;;;;;5.55;2.58;;;;;;;27.76;35.23;93198.13;5491322;25;20051;-71
2024/04/15 09:11:09;;;;;;;8.65;2.15;;;;;;;27.94;35.43;93218.03;5508683;26;19993;-71
2024/04/15 09:13:34;;;;;;;4.60;1.60;;;;;;;27.78;34.12;93190.66;5487226;25;20034;-70
2024/04/15 09:16:00;;;;;;;4.78;1.80;;;;;;;27.91;34.44;93218.66;5498639;26;20002;-70
2024/04/15 09:18:25;;;;;;;4.47;1.85;;;;;;;27.86;34.65;93190.59;5513490;26;20001;-71
2024/04/15 09:20:52;;;;;;;3.00;1.77;;;;;;;27.85;34.58;93167.94;5487816;26;20527;-71
2024/04/15 09:23:18;;;;;;;4.20;1.65;;;;;;;28.28;34.34;93208.38;5501815;25;20010;-70
2024/04/15 09:25:43;;;;;;;4.53;1.80;;;;;;;28.21;34.03;93178.25;5507212;26;20000;-70
2024/04/15 09:28:09;;;;;;;5.15;2.10;;;;;;;28.43;34.28;93200.97;5511028;25;20008;-70
2024/04/15 09:30:34;;;;;;;3.33;1.80;;;;;;;28.26;34.24;93173.59;5494432;25;20034;-70
2024/04/15 09:33:00;;;;;;;5.30;2.10;;;;;;;28.58;33.84;93188.25;5496598;25;20037;-70
2024/04/15 09:35:26;;;;;;;6.28;2.28;;;;;;;28.76;33.81;93188.88;5500580;26;20013;-70
2024/04/15 09:37:53;;;;;;;4.28;1.90;;;;;;;28.73;33.25;93169.16;5498903;26;20022;-70
2024/04/15 09:40:23;;;;;;;5.32;1.83;;;;;;;28.94;32.73;93187.63;5489530;26;19998;-70
2024/04/15 09:42:52;;;;;;;4.82;2.00;;;;;;;28.52;33.61;93106.56;5488328;25;19997;-70
2024/04/15 09:45:20;;;;;;;19.42;3.22;;;;;;;28.83;33.15;93157.41;5479528;26;20090;-70
2024/04/15 09:47:46;;;;;;;6.10;2.72;;;;;;;29.08;33.12;93178.66;5487845;26;20002;-71
2024/04/15 09:50:12;;;;;;;4.78;2.30;;;;;;;29.00;33.26;93185.56;5490919;25;20643;-70
2024/04/15 09:52:40;;;;;;;7.38;2.45;;;;;;;29.22;33.35;93175.69;5494986;25;20017;-71
2024/04/15 09:55:09;;;;;;;4.28;1.88;;;;;;;29.11;32.85;93153.44;5496469;26;20361;-71
2024/04/15 09:57:42;;;;;;;6.47;3.38;;;;;;;29.24;33.13;93175.38;5493896;26;20073;-71
2024/04/15 10:00:13;;;;;;;7.50;3.03;;;;;;;29.13;32.54;93136.13;5488676;26;20002;-71
2024/04/15 10:02:53;;;;;;;7.93;3.70;;;;;;;28.76;33.22;93078.66;5487803;26;20005;-71
2024/04/15 10:05:25;;;;;;;5.28;2.65;;;;;;;29.19;31.73;93120.81;5492712;26;19998;-71
2024/04/15 10:07:58;;;;;;;7.75;3.00;;;;;;;29.45;32.09;93154.91;5487051;26;19997;-71
2024/04/15 10:10:28;;;;;;;7.53;1.95;;;;;;;29.10;31.29;93125.44;5491971;26;20001;-71
2024/04/15 10:13:00;;;;;;;6.07;2.00;;;;;;;28.89;31.61;93124.44;5492332;26;20390;-70
2024/04/15 10:15:27;;;;;;;7.63;3.38;;;;;;;29.25;31.19;93131.94;5486952;26;20438;-71
2024/04/15 10:18:03;;;;;;;6.22;2.78;;;;;;;29.31;31.32;93125.34;5485790;25;19993;-71
2024/04/15 10:20:49;;;;;;;3.78;1.85;;;;;;;29.24;31.67;93109.25;5488161;26;20013;-71
2024/04/15 10:23:18;;;;;;;4.55;1.83;;;;;;;29.47;31.18;93126.22;5485812;26;20603;-71
2024/04/15 10:25:44;;;;;;;8.82;2.58;;;;;;;29.37;31.73;93084.31;5487412;26;20001;-71
2024/04/15 10:28:13;;;;;;;6.07;1.90;;;;;;;29.67;30.91;93131.72;5491670;25;19993;-71
2024/04/15 10:30:40;;;;;;;6.15;2.40;;;;;;;29.59;30.81;93130.00;5488885;26;20004;-71
2024/04/15 10:33:08;;;;;;;6.28;2.03;;;;;;;29.80;30.56;93111.31;5487673;25;19994;-71
2024/04/15 10:35:38;;;;;;;6.28;2.25;;;;;;;29.75;31.09;93093.00;5491061;26;19998;-71
2024/04/15 10:38:05;;;;;;;4.90;1.70;;;;;;;29.92;30.64;93115.81;5490417;26;19993;-72
2024/04/15 10:40:43;;;;;;;4.30;1.60;;;;;;;30.06;29.68;93099.56;5489225;26;20012;-71
2024/04/15 10:43:12;;;;;;;5.70;1.80;;;;;;;30.13;29.84;93091.84;5485421;26;20520;-71
2024/04/15 10:45:37;;;;;;;6.97;2.15;;;;;;;30.25;28.94;93093.69;5488630;25;20781;-71
2024/04/15 10:48:03;;;;;;;11.75;2.22;;;;;;;30.33;28.71;93089.34;5484265;26;20002;-71
2024/04/15 10:50:29;;;;;;;4.10;1.77;;;;;;;30.21;28.95;93049.63;5489303;26;20001;-71
2024/04/15 10:52:54;;;;;;;4.85;1.90;;;;;;;30.28;27.07;93073.69;5486880;26;19998;-71
2024/04/15 10:55:20;;;;;;;3.50;1.88;;;;;;;29.95;28.00;93045.53;5492364;25;20430;-71
2024/04/15 10:57:47;;;;;;;3.53;2.03;;;;;;;29.89;29.03;93068.06;5491356;26;20626;-71
2024/04/15 11:00:14;;;;;;;6.78;2.60;;;;;;;29.80;29.23;93047.78;5487410;26;20026;-71
2024/04/15 11:02:42;;;;;;;6.15;1.95;;;;;;;29.86;30.11;93030.53;5488774;26;20061;-71
2024/04/15 11:05:08;;;;;;;7.40;2.67;;;;;;;30.18;29.42;93027.28;5486349;25;20446;-71
2024/04/15 11:07:34;;;;;;;7.07;2.28;;;;;;;30.55;29.17;93050.16;5490042;26;19990;-71
2024/04/15 11:09:59;;;;;;;5.32;2.45;;;;;;;30.27;28.59;93029.78;5485812;26;20001;-71
2024/04/15 11:12:25;;;;;;;4.82;2.25;;;;;;;30.05;29.18;93025.75;5506020;26;20453;-70
2024/04/15 11:14:55;;;;;;;4.75;3.38;;;;;;;29.87;28.89;93018.09;5507576;26;20023;-71
2024/04/15 11:17:24;;;;;;;5.55;2.20;;;;;;;29.96;29.06;93031.97;5497906;26;20337;-70
2024/04/15 11:20:05;;;;;;;6.25;2.20;;;;;;;30.07;29.95;93029.59;5491662;26;20030;-71
2024/04/15 11:22:31;;;;;;;5.50;2.20;;;;;;;30.17;29.52;93017.75;5493561;25;20030;-71
2024/04/15 11:24:57;;;;;;;4.95;2.00;;;;;;;30.36;29.79;93011.81;5495257;25;20014;-70
2024/04/15 11:27:27;;;;;;;5.93;2.13;;;;;;;30.36;29.98;93019.75;5491522;26;20086;-71
2024/04/15 11:29:55;;;;;;;3.90;1.52;;;;;;;30.21;30.67;92992.16;5493044;26;20048;-71
2024/04/15 11:32:23;;;;;;;4.88;1.90;;;;;;;29.85;29.07;92925.75;5494206;26;20356;-71